Van Horn's Hourly Summary for Saturday, October 17, 2020
Hour Temp
(f)
RH
(%)
Solar Rad.
(MJ/m2)
Rainfall
(in)
Wind
(mph)
Battery
(volts)
10/17/2020 12:00 AM 55 40 0 0 6.57 0
10/17/2020 1:00 AM 55 44 0 0 8.7 0
10/17/2020 2:00 AM 52 48 0 0 7.12 0
10/17/2020 3:00 AM 52 50 0 0 7.85 0
10/17/2020 4:00 AM 52 52 0 0 6.57 0
10/17/2020 5:00 AM 52 51 0 0 5.32 0
10/17/2020 6:00 AM 51 54 0 0 7.6 0
10/17/2020 7:00 AM 53 52 0 0 5.44 0
10/17/2020 8:00 AM 54 50 0.07 0 6.31 0
10/17/2020 9:00 AM 61 42 0.26 0 7.44 0
10/17/2020 10:00 AM 68 32 0.43 0 8.6 0
10/17/2020 11:00 AM 73 28 0.57 0 9.81 0
10/17/2020 12:00 PM 78 21 0.66 0 10.07 0
10/17/2020 1:00 PM 81 21 0.69 0 8.32 0
10/17/2020 2:00 PM 85 18 0.66 0 3.5 0
10/17/2020 3:00 PM 88 15 0.59 0 9.95 0
10/17/2020 4:00 PM 89 15 0.45 0 7.42 0
10/17/2020 5:00 PM 90 11 0.27 0 7.45 0
10/17/2020 6:00 PM 88 12 0.09 0 5.73 0
10/17/2020 7:00 PM 84 13 0 0 5.28 0
10/17/2020 8:00 PM 76 17 0 0 5.32 0
10/17/2020 9:00 PM 66 26 0 0 1.59 0
10/17/2020 10:00 PM 63 29 0 0 2.71 0
10/17/2020 11:00 PM 62 28 0 0 6.77 0
Data Summary 67 32 4.74 0.00 6.73 0.00